Sheldon, IA

12:53 PM CDT on August 17, 2017 (GMT -0500)
Sheldon Municipal

Weather History for KSHL - March, 2015

Change the Weather History Date:

Friday, March 20, 2015

  Actual Average Record
Temperature  
Mean Temperature 48 °F -  
Max Temperature 71 °F 45 °F 71 °F (2015)
Min Temperature 24 °F 25 °F -2 °F (1951)
Degree Days  
Heating Degree Days 18    
Moisture  
Dew Point 31 °F    
Average Humidity 65    
Maximum Humidity 100    
Minimum Humidity 21    
Precipitation  
Precipitation 0.00 in - - ()
Sea Level Pressure  
Sea Level Pressure 30.01 in    
Wind  
Wind Speed 10 mph (West)    
Max Wind Speed 24 mph    
Max Gust Speed 32 mph    
Visibility 9 miles    
Events      
Averages and records for this station are not official NWS values.
T = Trace of Precipitation, MM = Missing Value Source: NWS Daily Summary

Daily Weather History Graph

Daily Weather History Graph

Search for Another Location

Airport or City:

Trip Planner

Search our weather history database for the weather conditions in past years. The results will help you decide how hot, cold, wet, or windy it might be!

Date:

Astronomy

Mar. 20, 2015 Rise Set
Actual Time 7:26 AM CDT 7:35 PM CDT
Civil Twilight 6:58 AM CDT 8:03 PM CDT
Nautical Twilight 6:25 AM CDT 8:37 PM CDT
Astronomical Twilight 5:51 AM CDT 9:11 PM CDT
Moon 7:31 AM CDT (3/20) 8:18 PM CDT (3/20)
Length of Visible Light 13h 05m
Length of Day
12h 08m
New Moon, 0% of the Moon is Illuminated
Mar 20
New Moon
Mar 27
First Quarter
Apr 4
Full
Apr 11
Last Quarter
Apr 18
New

Hourly Weather History & Observations

Time (CDT) Temp. Windchill Dew Point Humidity Pressure Visibility Wind Dir Wind Speed Gust Speed Precip Events Conditions
12:15 AM 32.0 °F 25.6 °F 26.6 °F 80% 30.03 in 10.0 mi WNW 6.9 mph - N/A   Clear
12:35 AM 32.0 °F 26.4 °F 28.4 °F 87% 30.03 in 10.0 mi WNW 5.8 mph - N/A   Clear
12:55 AM 32.0 °F 25.6 °F 28.4 °F 87% 30.04 in 10.0 mi WNW 6.9 mph - N/A   Clear
1:15 AM 32.0 °F 25.6 °F 28.4 °F 87% 30.04 in 10.0 mi WNW 6.9 mph - N/A   Clear
1:35 AM 30.2 °F 23.4 °F 26.6 °F 86% 30.04 in 10.0 mi WNW 6.9 mph - N/A   Clear
1:55 AM 30.2 °F 22.6 °F 26.6 °F 86% 30.05 in - WNW 8.1 mph - N/A   Unknown
2:15 AM 30.2 °F 23.4 °F 28.4 °F 93% 30.05 in 10.0 mi WNW 6.9 mph - N/A   Clear
2:35 AM 28.4 °F 21.2 °F 28.4 °F 100% 30.06 in 9.0 mi WNW 6.9 mph - N/A   Clear
2:55 AM 30.2 °F 23.4 °F 28.4 °F 93% 30.05 in 9.0 mi WNW 6.9 mph - N/A   Clear
3:15 AM 28.4 °F 21.2 °F 26.6 °F 93% 30.05 in 8.0 mi NW 6.9 mph - N/A   Clear
3:35 AM 28.4 °F 23.3 °F 28.4 °F 100% 30.05 in 8.0 mi WNW 4.6 mph - N/A   Clear
3:55 AM 28.4 °F 22.2 °F 28.4 °F 100% 30.05 in 7.0 mi WNW 5.8 mph - N/A   Clear
4:15 AM 24.8 °F 16.9 °F 24.8 °F 100% 30.05 in 5.0 mi WNW 6.9 mph - N/A   Clear
4:35 AM 28.4 °F 20.4 °F 26.6 °F 93% 30.04 in 6.0 mi West 8.1 mph - N/A   Clear
4:55 AM 28.4 °F 20.4 °F 28.4 °F 100% 30.05 in 5.0 mi West 8.1 mph - N/A   Clear
5:15 AM 26.6 °F 18.2 °F 26.6 °F 100% 30.06 in 5.0 mi West 8.1 mph - N/A   Clear
5:35 AM 26.6 °F 18.2 °F 26.6 °F 100% 30.05 in 5.0 mi West 8.1 mph - N/A   Clear
5:55 AM 26.6 °F 17.5 °F 26.6 °F 100% 30.05 in 5.0 mi West 9.2 mph - N/A   Clear
6:15 AM 26.6 °F 18.2 °F 26.6 °F 100% 30.05 in 5.0 mi West 8.1 mph - N/A   Clear
6:35 AM 26.6 °F 19.1 °F 26.6 °F 100% 30.06 in 5.0 mi West 6.9 mph - N/A   Clear
6:55 AM 26.6 °F 19.1 °F 26.6 °F 100% 30.06 in 5.0 mi West 6.9 mph - N/A   Clear
7:35 AM 28.4 °F 21.2 °F 28.4 °F 100% 30.06 in 4.0 mi WSW 6.9 mph - N/A   Clear
7:55 AM 26.6 °F 19.1 °F 26.6 °F 100% 30.06 in 4.0 mi SW 6.9 mph - N/A   Clear
8:15 AM 28.4 °F 22.2 °F 28.4 °F 100% 30.07 in 4.0 mi WSW 5.8 mph - N/A   Clear
8:35 AM 30.2 °F 25.4 °F 28.4 °F 93% 30.07 in 4.0 mi SW 4.6 mph - N/A   Clear
8:55 AM 33.8 °F 29.6 °F 32.0 °F 93% 30.07 in 5.0 mi WSW 4.6 mph - N/A   Clear
9:15 AM 35.6 °F 29.9 °F 33.8 °F 93% 30.08 in 6.0 mi SW 6.9 mph - N/A   Clear
9:35 AM 39.2 °F 32.0 °F 33.8 °F 81% 30.07 in 9.0 mi SW 11.5 mph - N/A   Clear
9:55 AM 41.0 °F 34.7 °F 33.8 °F 76% 30.09 in 10.0 mi WSW 10.4 mph - N/A   Clear
10:15 AM 42.8 °F 36.6 °F 32.0 °F 66% 30.08 in 10.0 mi WSW 11.5 mph - N/A   Clear
10:35 AM 44.6 °F 38.8 °F 32.0 °F 61% 30.08 in 10.0 mi West 11.5 mph - N/A   Clear
10:55 AM 48.2 °F - 32.0 °F 54% 30.07 in 10.0 mi WSW 12.7 mph - N/A   Clear
11:15 AM 48.2 °F - 32.0 °F 54% 30.07 in 10.0 mi SW 10.4 mph - N/A   Clear
11:35 AM 50.0 °F - 32.0 °F 50% 30.07 in 10.0 mi WSW 11.5 mph - N/A   Clear
11:55 AM 51.8 °F - 30.2 °F 44% 30.06 in 10.0 mi WSW 11.5 mph - N/A   Clear
12:15 PM 53.6 °F - 32.0 °F 44% 30.05 in 10.0 mi WSW 15.0 mph - N/A   Clear
12:35 PM 53.6 °F - 32.0 °F 44% 30.04 in 10.0 mi SW 15.0 mph - N/A   Clear
12:55 PM 55.4 °F - 30.2 °F 38% 30.03 in 10.0 mi SW 9.2 mph 17.3 mph N/A   Clear
1:15 PM 57.2 °F - 32.0 °F 38% 30.01 in 10.0 mi SSW 13.8 mph - N/A   Clear
1:35 PM 59.0 °F - 30.2 °F 34% 29.99 in 10.0 mi SW 16.1 mph - N/A   Clear
1:55 PM 59.0 °F - 30.2 °F 34% 29.98 in 10.0 mi SSW 13.8 mph 23.0 mph N/A   Clear
2:15 PM 60.8 °F - 30.2 °F 31% 29.97 in 10.0 mi SSW 16.1 mph 23.0 mph N/A   Clear
2:35 PM 60.8 °F - 28.4 °F 29% 29.95 in 10.0 mi SSW 11.5 mph 23.0 mph N/A   Clear
2:55 PM 62.6 °F - 30.2 °F 30% 29.94 in 10.0 mi SW 18.4 mph 27.6 mph N/A   Clear
3:15 PM 62.6 °F - 30.2 °F 30% 29.93 in 10.0 mi SW 19.6 mph - N/A   Clear
3:35 PM 64.4 °F - 32.0 °F 30% 29.92 in 10.0 mi SSW 17.3 mph 26.5 mph N/A   Clear
3:55 PM 66.2 °F - 30.2 °F 26% 29.90 in 10.0 mi SW 21.9 mph 27.6 mph N/A   Clear
4:15 PM 68.0 °F - 30.2 °F 24% 29.89 in 10.0 mi SW 19.6 mph 25.3 mph N/A   Clear
4:35 PM 68.0 °F - 32.0 °F 26% 29.89 in 10.0 mi SW 17.3 mph 27.6 mph N/A   Clear
4:55 PM 69.8 °F - 32.0 °F 25% 29.88 in 10.0 mi WSW 17.3 mph 25.3 mph N/A   Clear
5:15 PM 71.6 °F - 32.0 °F 23% 29.87 in 10.0 mi WSW 20.7 mph 26.5 mph N/A   Clear
5:35 PM 71.6 °F - 30.2 °F 22% 29.87 in 10.0 mi West 18.4 mph 25.3 mph N/A   Clear
5:55 PM 71.6 °F - 30.2 °F 22% 29.87 in 10.0 mi WNW 20.7 mph 32.2 mph N/A   Clear
6:15 PM 69.8 °F - 28.4 °F 21% 29.89 in 10.0 mi WNW 24.2 mph 32.2 mph N/A   Clear
6:35 PM 68.0 °F - 32.0 °F 26% 29.90 in 10.0 mi NNW 23.0 mph 29.9 mph N/A   Clear
6:55 PM 66.2 °F - 32.0 °F 28% 29.91 in 10.0 mi NW 13.8 mph 23.0 mph N/A   Clear
7:15 PM 64.4 °F - 32.0 °F 30% 29.92 in 10.0 mi NW 11.5 mph 20.7 mph N/A   Clear
7:35 PM 60.8 °F - 33.8 °F 36% 29.93 in 10.0 mi NNW 10.4 mph - N/A   Clear
7:55 PM 55.4 °F - 33.8 °F 44% 29.94 in 10.0 mi NW 5.8 mph - N/A   Clear
8:15 PM 50.0 °F - 32.0 °F 50% 29.94 in 10.0 mi NNW 6.9 mph - N/A   Clear
8:35 PM 48.2 °F - 32.0 °F 54% 29.95 in 10.0 mi NNW 6.9 mph - N/A   Clear
8:55 PM 46.4 °F 42.9 °F 32.0 °F 57% 29.96 in 10.0 mi NNW 6.9 mph - N/A   Clear
9:15 PM 46.4 °F 41.9 °F 32.0 °F 57% 29.98 in 8.0 mi NNW 9.2 mph - N/A   Clear
9:35 PM 50.0 °F - 37.4 °F 62% 30.01 in 10.0 mi North 17.3 mph - N/A   Clear
9:55 PM 48.2 °F - 37.4 °F 66% 30.02 in 10.0 mi North 20.7 mph 28.8 mph N/A   Clear
10:15 PM 46.4 °F 39.5 °F 37.4 °F 71% 30.03 in 10.0 mi North 17.3 mph 24.2 mph N/A   Clear
10:35 PM 44.6 °F 37.4 °F 37.4 °F 76% 30.05 in - North 16.1 mph - N/A   Clear
10:55 PM 42.8 °F 35.1 °F 35.6 °F 76% 30.05 in 10.0 mi North 16.1 mph - N/A   Clear
11:15 PM 41.0 °F 33.9 °F 35.6 °F 81% 30.06 in 10.0 mi North 12.7 mph - N/A   Clear
11:35 PM 41.0 °F 32.5 °F 35.6 °F 81% 30.06 in 10.0 mi North 17.3 mph - N/A   Clear
11:55 PM 39.2 °F 31.2 °F 35.6 °F 87% 30.07 in 10.0 mi North 13.8 mph 20.7 mph N/A   Clear